sensor_id;sensor_type;location;lat;lon;timestamp;P1;durP1;ratioP1;P2;durP2;ratioP2
8964;SDS011;4517;49.020;12.066;2022-10-26T00:01:05;12.80;;;10.00;;
8964;SDS011;4517;49.020;12.066;2022-10-26T00:03:32;17.77;;;10.03;;
8964;SDS011;4517;49.020;12.066;2022-10-26T00:06:05;16.53;;;9.73;;
8964;SDS011;4517;49.020;12.066;2022-10-26T00:08:32;19.67;;;11.23;;
8964;SDS011;4517;49.020;12.066;2022-10-26T00:10:58;15.13;;;11.10;;
8964;SDS011;4517;49.020;12.066;2022-10-26T00:13:23;19.33;;;11.00;;
8964;SDS011;4517;49.020;12.066;2022-10-26T00:15:49;15.37;;;10.40;;
8964;SDS011;4517;49.020;12.066;2022-10-26T00:18:14;23.23;;;11.37;;
8964;SDS011;4517;49.020;12.066;2022-10-26T00:20:40;19.53;;;11.10;;
8964;SDS011;4517;49.020;12.066;2022-10-26T00:23:06;16.80;;;10.90;;
8964;SDS011;4517;49.020;12.066;2022-10-26T00:25:32;12.97;;;10.60;;
8964;SDS011;4517;49.020;12.066;2022-10-26T00:27:58;15.87;;;11.30;;
8964;SDS011;4517;49.020;12.066;2022-10-26T00:30:23;15.87;;;11.57;;
8964;SDS011;4517;49.020;12.066;2022-10-26T00:32:49;15.47;;;11.00;;
8964;SDS011;4517;49.020;12.066;2022-10-26T00:35:15;12.80;;;10.13;;
8964;SDS011;4517;49.020;12.066;2022-10-26T00:37:40;21.50;;;10.80;;
8964;SDS011;4517;49.020;12.066;2022-10-26T00:40:06;13.83;;;10.90;;
8964;SDS011;4517;49.020;12.066;2022-10-26T00:42:32;12.83;;;9.80;;
8964;SDS011;4517;49.020;12.066;2022-10-26T00:44:59;12.20;;;10.17;;
8964;SDS011;4517;49.020;12.066;2022-10-26T00:47:50;12.37;;;10.90;;
8964;SDS011;4517;49.020;12.066;2022-10-26T00:50:17;20.50;;;11.53;;
8964;SDS011;4517;49.020;12.066;2022-10-26T00:52:53;11.53;;;10.30;;
8964;SDS011;4517;49.020;12.066;2022-10-26T00:55:20;18.13;;;11.10;;
8964;SDS011;4517;49.020;12.066;2022-10-26T00:57:48;19.30;;;11.60;;
8964;SDS011;4517;49.020;12.066;2022-10-26T01:00:16;18.03;;;10.90;;
8964;SDS011;4517;49.020;12.066;2022-10-26T01:02:41;20.00;;;11.47;;
8964;SDS011;4517;49.020;12.066;2022-10-26T01:05:09;19.47;;;12.13;;
8964;SDS011;4517;49.020;12.066;2022-10-26T01:07:36;25.30;;;11.57;;
8964;SDS011;4517;49.020;12.066;2022-10-26T01:10:02;21.60;;;13.27;;
8964;SDS011;4517;49.020;12.066;2022-10-26T01:12:28;19.47;;;13.10;;
8964;SDS011;4517;49.020;12.066;2022-10-26T01:14:53;17.73;;;12.47;;
8964;SDS011;4517;49.020;12.066;2022-10-26T01:17:41;23.97;;;14.50;;
8964;SDS011;4517;49.020;12.066;2022-10-26T01:20:37;18.13;;;12.37;;
8964;SDS011;4517;49.020;12.066;2022-10-26T01:26:03;18.77;;;12.47;;
8964;SDS011;4517;49.020;12.066;2022-10-26T01:28:52;16.70;;;12.33;;
8964;SDS011;4517;49.020;12.066;2022-10-26T01:31:36;17.03;;;12.63;;
8964;SDS011;4517;49.020;12.066;2022-10-26T01:34:34;20.13;;;11.63;;
8964;SDS011;4517;49.020;12.066;2022-10-26T01:37:11;16.20;;;10.50;;
8964;SDS011;4517;49.020;12.066;2022-10-26T01:39:45;14.00;;;10.90;;
8964;SDS011;4517;49.020;12.066;2022-10-26T01:42:17;22.27;;;12.97;;
8964;SDS011;4517;49.020;12.066;2022-10-26T01:44:47;15.10;;;11.57;;
8964;SDS011;4517;49.020;12.066;2022-10-26T01:47:17;22.90;;;11.27;;
8964;SDS011;4517;49.020;12.066;2022-10-26T01:49:52;12.17;;;10.87;;
8964;SDS011;4517;49.020;12.066;2022-10-26T01:52:20;14.13;;;10.97;;
8964;SDS011;4517;49.020;12.066;2022-10-26T01:54:47;18.17;;;12.00;;
8964;SDS011;4517;49.020;12.066;2022-10-26T01:57:19;12.47;;;11.17;;
8964;SDS011;4517;49.020;12.066;2022-10-26T02:07:50;11.70;;;10.57;;
8964;SDS011;4517;49.020;12.066;2022-10-26T02:13:28;16.03;;;11.90;;
8964;SDS011;4517;49.020;12.066;2022-10-26T02:21:56;15.47;;;11.17;;
8964;SDS011;4517;49.020;12.066;2022-10-26T02:24:27;11.87;;;10.33;;
8964;SDS011;4517;49.020;12.066;2022-10-26T02:26:53;12.00;;;10.90;;
8964;SDS011;4517;49.020;12.066;2022-10-26T02:29:20;12.93;;;11.60;;
8964;SDS011;4517;49.020;12.066;2022-10-26T02:31:48;16.60;;;11.80;;
8964;SDS011;4517;49.020;12.066;2022-10-26T02:34:17;13.03;;;11.70;;
8964;SDS011;4517;49.020;12.066;2022-10-26T02:36:47;16.20;;;11.80;;
8964;SDS011;4517;49.020;12.066;2022-10-26T02:39:15;20.60;;;11.80;;
8964;SDS011;4517;49.020;12.066;2022-10-26T02:41:43;15.70;;;11.70;;
8964;SDS011;4517;49.020;12.066;2022-10-26T02:44:13;18.10;;;12.63;;
8964;SDS011;4517;49.020;12.066;2022-10-26T02:46:45;18.33;;;11.67;;
8964;SDS011;4517;49.020;12.066;2022-10-26T02:49:11;15.30;;;12.73;;
8964;SDS011;4517;49.020;12.066;2022-10-26T02:51:38;14.97;;;11.80;;
8964;SDS011;4517;49.020;12.066;2022-10-26T02:54:14;20.23;;;11.60;;
8964;SDS011;4517;49.020;12.066;2022-10-26T02:56:51;15.60;;;11.67;;
8964;SDS011;4517;49.020;12.066;2022-10-26T02:59:21;24.10;;;12.27;;
8964;SDS011;4517;49.020;12.066;2022-10-26T03:01:49;16.13;;;13.33;;
8964;SDS011;4517;49.020;12.066;2022-10-26T03:04:15;17.73;;;12.47;;
8964;SDS011;4517;49.020;12.066;2022-10-26T03:06:41;16.23;;;11.43;;
8964;SDS011;4517;49.020;12.066;2022-10-26T03:09:07;14.13;;;11.50;;
8964;SDS011;4517;49.020;12.066;2022-10-26T03:11:32;13.87;;;11.83;;
8964;SDS011;4517;49.020;12.066;2022-10-26T03:13:58;15.57;;;11.10;;
8964;SDS011;4517;49.020;12.066;2022-10-26T03:16:23;17.70;;;10.70;;
8964;SDS011;4517;49.020;12.066;2022-10-26T03:18:49;16.20;;;10.83;;
8964;SDS011;4517;49.020;12.066;2022-10-26T03:21:14;13.57;;;12.03;;
8964;SDS011;4517;49.020;12.066;2022-10-26T03:23:40;12.90;;;11.60;;
8964;SDS011;4517;49.020;12.066;2022-10-26T03:26:06;14.37;;;11.57;;
8964;SDS011;4517;49.020;12.066;2022-10-26T03:28:31;15.13;;;11.00;;
8964;SDS011;4517;49.020;12.066;2022-10-26T03:30:57;12.57;;;11.33;;
8964;SDS011;4517;49.020;12.066;2022-10-26T03:33:22;12.10;;;10.90;;
8964;SDS011;4517;49.020;12.066;2022-10-26T03:35:53;14.27;;;11.13;;
8964;SDS011;4517;49.020;12.066;2022-10-26T03:38:19;14.70;;;11.97;;
8964;SDS011;4517;49.020;12.066;2022-10-26T03:40:45;19.93;;;11.80;;
8964;SDS011;4517;49.020;12.066;2022-10-26T03:43:12;14.27;;;11.10;;
8964;SDS011;4517;49.020;12.066;2022-10-26T03:45:38;13.37;;;11.07;;
8964;SDS011;4517;49.020;12.066;2022-10-26T03:48:03;19.63;;;12.17;;
8964;SDS011;4517;49.020;12.066;2022-10-26T03:50:29;20.60;;;12.00;;
8964;SDS011;4517;49.020;12.066;2022-10-26T03:52:54;16.50;;;12.30;;
8964;SDS011;4517;49.020;12.066;2022-10-26T03:55:20;14.47;;;11.37;;
8964;SDS011;4517;49.020;12.066;2022-10-26T03:57:46;18.10;;;12.40;;
8964;SDS011;4517;49.020;12.066;2022-10-26T04:00:12;12.47;;;11.17;;
8964;SDS011;4517;49.020;12.066;2022-10-26T04:02:41;16.30;;;11.87;;
8964;SDS011;4517;49.020;12.066;2022-10-26T04:05:07;19.57;;;13.03;;
8964;SDS011;4517;49.020;12.066;2022-10-26T04:07:33;14.90;;;12.17;;
8964;SDS011;4517;49.020;12.066;2022-10-26T04:09:59;14.87;;;12.73;;
8964;SDS011;4517;49.020;12.066;2022-10-26T04:12:25;14.43;;;12.53;;
8964;SDS011;4517;49.020;12.066;2022-10-26T04:14:50;17.73;;;12.40;;
8964;SDS011;4517;49.020;12.066;2022-10-26T04:17:16;14.93;;;11.43;;
8964;SDS011;4517;49.020;12.066;2022-10-26T04:19:42;20.33;;;12.70;;
8964;SDS011;4517;49.020;12.066;2022-10-26T04:22:07;16.20;;;13.40;;
8964;SDS011;4517;49.020;12.066;2022-10-26T04:24:33;15.60;;;13.80;;
8964;SDS011;4517;49.020;12.066;2022-10-26T04:26:58;17.13;;;13.40;;
8964;SDS011;4517;49.020;12.066;2022-10-26T04:29:24;16.57;;;13.57;;
8964;SDS011;4517;49.020;12.066;2022-10-26T04:31:49;18.00;;;14.00;;
8964;SDS011;4517;49.020;12.066;2022-10-26T04:34:15;19.90;;;12.23;;
8964;SDS011;4517;49.020;12.066;2022-10-26T04:36:40;16.17;;;13.37;;
8964;SDS011;4517;49.020;12.066;2022-10-26T04:39:06;21.37;;;12.70;;
8964;SDS011;4517;49.020;12.066;2022-10-26T04:41:31;15.60;;;13.90;;
8964;SDS011;4517;49.020;12.066;2022-10-26T04:43:57;17.30;;;13.70;;
8964;SDS011;4517;49.020;12.066;2022-10-26T04:46:23;16.40;;;14.30;;
8964;SDS011;4517;49.020;12.066;2022-10-26T04:48:48;19.40;;;13.90;;
8964;SDS011;4517;49.020;12.066;2022-10-26T04:51:14;21.13;;;14.80;;
8964;SDS011;4517;49.020;12.066;2022-10-26T04:53:39;15.30;;;13.70;;
8964;SDS011;4517;49.020;12.066;2022-10-26T04:56:05;19.10;;;13.93;;
8964;SDS011;4517;49.020;12.066;2022-10-26T04:58:30;21.60;;;14.57;;
8964;SDS011;4517;49.020;12.066;2022-10-26T05:00:56;15.87;;;14.17;;
8964;SDS011;4517;49.020;12.066;2022-10-26T05:03:22;15.57;;;13.97;;
8964;SDS011;4517;49.020;12.066;2022-10-26T05:05:47;15.27;;;13.73;;
8964;SDS011;4517;49.020;12.066;2022-10-26T05:08:13;18.03;;;13.60;;
8964;SDS011;4517;49.020;12.066;2022-10-26T05:10:39;20.20;;;15.00;;
8964;SDS011;4517;49.020;12.066;2022-10-26T05:13:05;16.43;;;14.93;;
8964;SDS011;4517;49.020;12.066;2022-10-26T05:15:31;15.60;;;14.00;;
8964;SDS011;4517;49.020;12.066;2022-10-26T05:17:57;21.20;;;14.60;;
8964;SDS011;4517;49.020;12.066;2022-10-26T05:20:28;26.83;;;15.13;;
8964;SDS011;4517;49.020;12.066;2022-10-26T05:23:02;17.30;;;14.47;;
8964;SDS011;4517;49.020;12.066;2022-10-26T05:25:30;23.63;;;15.57;;
8964;SDS011;4517;49.020;12.066;2022-10-26T05:28:01;21.47;;;19.20;;
8964;SDS011;4517;49.020;12.066;2022-10-26T05:30:29;19.50;;;14.93;;
8964;SDS011;4517;49.020;12.066;2022-10-26T05:32:55;22.83;;;14.70;;
8964;SDS011;4517;49.020;12.066;2022-10-26T05:35:22;15.73;;;14.00;;
8964;SDS011;4517;49.020;12.066;2022-10-26T05:37:48;20.40;;;14.90;;
8964;SDS011;4517;49.020;12.066;2022-10-26T05:40:14;15.67;;;14.07;;
8964;SDS011;4517;49.020;12.066;2022-10-26T05:42:41;18.20;;;14.57;;
8964;SDS011;4517;49.020;12.066;2022-10-26T05:45:07;16.20;;;13.53;;
8964;SDS011;4517;49.020;12.066;2022-10-26T05:47:36;19.67;;;16.17;;
8964;SDS011;4517;49.020;12.066;2022-10-26T05:50:03;20.20;;;14.83;;
8964;SDS011;4517;49.020;12.066;2022-10-26T05:52:29;22.17;;;14.67;;
8964;SDS011;4517;49.020;12.066;2022-10-26T05:54:55;17.80;;;14.33;;
8964;SDS011;4517;49.020;12.066;2022-10-26T05:57:20;20.27;;;14.10;;
8964;SDS011;4517;49.020;12.066;2022-10-26T05:59:46;17.63;;;15.73;;
8964;SDS011;4517;49.020;12.066;2022-10-26T06:02:18;19.30;;;14.63;;
8964;SDS011;4517;49.020;12.066;2022-10-26T06:04:54;24.73;;;17.67;;
8964;SDS011;4517;49.020;12.066;2022-10-26T06:07:27;22.43;;;18.43;;
8964;SDS011;4517;49.020;12.066;2022-10-26T06:09:52;23.50;;;17.13;;
8964;SDS011;4517;49.020;12.066;2022-10-26T06:12:18;20.80;;;17.30;;
8964;SDS011;4517;49.020;12.066;2022-10-26T06:14:44;23.67;;;17.40;;
8964;SDS011;4517;49.020;12.066;2022-10-26T06:20:31;30.73;;;18.20;;
8964;SDS011;4517;49.020;12.066;2022-10-26T06:23:35;19.47;;;17.47;;
8964;SDS011;4517;49.020;12.066;2022-10-26T06:26:41;21.20;;;16.90;;
8964;SDS011;4517;49.020;12.066;2022-10-26T06:31:55;22.13;;;17.97;;
8964;SDS011;4517;49.020;12.066;2022-10-26T06:34:25;22.80;;;18.70;;
8964;SDS011;4517;49.020;12.066;2022-10-26T06:36:55;20.10;;;17.90;;
8964;SDS011;4517;49.020;12.066;2022-10-26T06:39:23;24.27;;;18.60;;
8964;SDS011;4517;49.020;12.066;2022-10-26T06:41:51;26.83;;;18.67;;
8964;SDS011;4517;49.020;12.066;2022-10-26T06:44:21;20.50;;;18.30;;
8964;SDS011;4517;49.020;12.066;2022-10-26T06:46:53;28.13;;;17.90;;
8964;SDS011;4517;49.020;12.066;2022-10-26T06:50:00;20.40;;;18.43;;
8964;SDS011;4517;49.020;12.066;2022-10-26T06:52:39;25.13;;;19.47;;
8964;SDS011;4517;49.020;12.066;2022-10-26T06:55:13;20.43;;;18.23;;
8964;SDS011;4517;49.020;12.066;2022-10-26T06:57:39;21.47;;;19.23;;
8964;SDS011;4517;49.020;12.066;2022-10-26T07:00:13;20.93;;;18.70;;
8964;SDS011;4517;49.020;12.066;2022-10-26T07:02:45;23.40;;;19.87;;
8964;SDS011;4517;49.020;12.066;2022-10-26T07:05:10;21.90;;;19.63;;
8964;SDS011;4517;49.020;12.066;2022-10-26T07:07:40;22.97;;;19.90;;
8964;SDS011;4517;49.020;12.066;2022-10-26T07:10:08;26.07;;;20.90;;
8964;SDS011;4517;49.020;12.066;2022-10-26T07:12:34;22.23;;;18.17;;
8964;SDS011;4517;49.020;12.066;2022-10-26T07:15:00;29.10;;;19.90;;
8964;SDS011;4517;49.020;12.066;2022-10-26T07:17:26;28.10;;;25.33;;
8964;SDS011;4517;49.020;12.066;2022-10-26T07:19:54;22.53;;;17.87;;
8964;SDS011;4517;49.020;12.066;2022-10-26T07:22:20;20.87;;;18.57;;
8964;SDS011;4517;49.020;12.066;2022-10-26T07:24:46;21.03;;;18.87;;
8964;SDS011;4517;49.020;12.066;2022-10-26T07:27:14;22.40;;;19.20;;
8964;SDS011;4517;49.020;12.066;2022-10-26T07:29:40;20.17;;;18.20;;
8964;SDS011;4517;49.020;12.066;2022-10-26T07:32:06;23.30;;;20.57;;
8964;SDS011;4517;49.020;12.066;2022-10-26T07:34:32;20.63;;;18.17;;
8964;SDS011;4517;49.020;12.066;2022-10-26T07:36:58;30.90;;;19.80;;
8964;SDS011;4517;49.020;12.066;2022-10-26T07:39:24;24.27;;;19.53;;
8964;SDS011;4517;49.020;12.066;2022-10-26T07:41:49;26.60;;;20.47;;
8964;SDS011;4517;49.020;12.066;2022-10-26T07:44:15;26.73;;;18.70;;
8964;SDS011;4517;49.020;12.066;2022-10-26T07:46:41;33.03;;;19.40;;
8964;SDS011;4517;49.020;12.066;2022-10-26T07:49:06;22.43;;;20.07;;
8964;SDS011;4517;49.020;12.066;2022-10-26T07:51:32;25.17;;;20.33;;
8964;SDS011;4517;49.020;12.066;2022-10-26T07:53:58;20.90;;;18.90;;
8964;SDS011;4517;49.020;12.066;2022-10-26T07:56:23;20.90;;;18.73;;
8964;SDS011;4517;49.020;12.066;2022-10-26T07:58:51;20.10;;;17.67;;
8964;SDS011;4517;49.020;12.066;2022-10-26T08:01:17;19.67;;;17.77;;
8964;SDS011;4517;49.020;12.066;2022-10-26T08:03:42;21.00;;;17.30;;
8964;SDS011;4517;49.020;12.066;2022-10-26T08:06:08;19.70;;;17.63;;
8964;SDS011;4517;49.020;12.066;2022-10-26T08:08:34;20.10;;;17.93;;
8964;SDS011;4517;49.020;12.066;2022-10-26T08:11:00;19.27;;;17.30;;
8964;SDS011;4517;49.020;12.066;2022-10-26T08:13:25;24.37;;;18.40;;
8964;SDS011;4517;49.020;12.066;2022-10-26T08:15:57;21.53;;;17.60;;
8964;SDS011;4517;49.020;12.066;2022-10-26T08:18:24;26.00;;;17.10;;
8964;SDS011;4517;49.020;12.066;2022-10-26T08:20:51;18.37;;;16.53;;
8964;SDS011;4517;49.020;12.066;2022-10-26T08:23:16;19.40;;;15.13;;
8964;SDS011;4517;49.020;12.066;2022-10-26T08:25:42;18.00;;;16.30;;
8964;SDS011;4517;49.020;12.066;2022-10-26T08:28:07;25.23;;;16.67;;
8964;SDS011;4517;49.020;12.066;2022-10-26T08:30:33;17.93;;;15.83;;
8964;SDS011;4517;49.020;12.066;2022-10-26T08:32:59;16.40;;;14.83;;
8964;SDS011;4517;49.020;12.066;2022-10-26T08:35:29;19.10;;;16.97;;
8964;SDS011;4517;49.020;12.066;2022-10-26T08:37:55;16.97;;;15.30;;
8964;SDS011;4517;49.020;12.066;2022-10-26T08:40:23;24.53;;;16.60;;
8964;SDS011;4517;49.020;12.066;2022-10-26T08:42:52;19.30;;;16.80;;
8964;SDS011;4517;49.020;12.066;2022-10-26T08:45:31;17.67;;;15.97;;
8964;SDS011;4517;49.020;12.066;2022-10-26T08:48:08;17.43;;;15.70;;
8964;SDS011;4517;49.020;12.066;2022-10-26T08:50:41;18.73;;;17.00;;
8964;SDS011;4517;49.020;12.066;2022-10-26T08:53:18;17.80;;;16.13;;
8964;SDS011;4517;49.020;12.066;2022-10-26T08:56:03;20.00;;;17.90;;
8964;SDS011;4517;49.020;12.066;2022-10-26T08:58:36;17.57;;;15.77;;
8964;SDS011;4517;49.020;12.066;2022-10-26T09:01:08;19.80;;;17.90;;
8964;SDS011;4517;49.020;12.066;2022-10-26T09:03:33;16.03;;;14.73;;
8964;SDS011;4517;49.020;12.066;2022-10-26T09:08:49;16.13;;;14.73;;
8964;SDS011;4517;49.020;12.066;2022-10-26T09:11:40;18.37;;;16.27;;
8964;SDS011;4517;49.020;12.066;2022-10-26T09:14:22;16.10;;;14.50;;
8964;SDS011;4517;49.020;12.066;2022-10-26T09:17:19;16.20;;;14.70;;
8964;SDS011;4517;49.020;12.066;2022-10-26T09:20:00;19.47;;;16.00;;
8964;SDS011;4517;49.020;12.066;2022-10-26T09:25:03;15.90;;;14.53;;
8964;SDS011;4517;49.020;12.066;2022-10-26T09:27:42;17.87;;;16.07;;
8964;SDS011;4517;49.020;12.066;2022-10-26T09:30:16;17.67;;;15.80;;
8964;SDS011;4517;49.020;12.066;2022-10-26T09:32:47;16.37;;;15.07;;
8964;SDS011;4517;49.020;12.066;2022-10-26T09:35:17;18.57;;;14.00;;
8964;SDS011;4517;49.020;12.066;2022-10-26T09:37:48;16.97;;;15.30;;
8964;SDS011;4517;49.020;12.066;2022-10-26T09:40:37;16.87;;;15.37;;
8964;SDS011;4517;49.020;12.066;2022-10-26T09:43:13;16.17;;;14.40;;
8964;SDS011;4517;49.020;12.066;2022-10-26T09:46:01;17.93;;;15.67;;
8964;SDS011;4517;49.020;12.066;2022-10-26T09:48:37;16.23;;;14.73;;
8964;SDS011;4517;49.020;12.066;2022-10-26T09:51:06;20.80;;;16.03;;
8964;SDS011;4517;49.020;12.066;2022-10-26T09:53:32;16.93;;;15.33;;
8964;SDS011;4517;49.020;12.066;2022-10-26T09:58:34;15.10;;;13.80;;
8964;SDS011;4517;49.020;12.066;2022-10-26T10:06:40;16.67;;;15.10;;
8964;SDS011;4517;49.020;12.066;2022-10-26T10:09:14;15.13;;;13.73;;
8964;SDS011;4517;49.020;12.066;2022-10-26T10:11:46;14.87;;;13.57;;
8964;SDS011;4517;49.020;12.066;2022-10-26T10:14:19;15.77;;;14.30;;
8964;SDS011;4517;49.020;12.066;2022-10-26T10:16:56;14.93;;;13.33;;
8964;SDS011;4517;49.020;12.066;2022-10-26T10:19:32;15.93;;;14.53;;
8964;SDS011;4517;49.020;12.066;2022-10-26T10:22:23;15.87;;;14.50;;
8964;SDS011;4517;49.020;12.066;2022-10-26T10:24:59;16.07;;;14.13;;
8964;SDS011;4517;49.020;12.066;2022-10-26T10:27:26;16.77;;;14.87;;
8964;SDS011;4517;49.020;12.066;2022-10-26T10:29:53;14.93;;;13.53;;
8964;SDS011;4517;49.020;12.066;2022-10-26T10:32:21;15.00;;;13.73;;
8964;SDS011;4517;49.020;12.066;2022-10-26T10:34:47;14.20;;;12.90;;
8964;SDS011;4517;49.020;12.066;2022-10-26T10:39:57;14.53;;;13.20;;
8964;SDS011;4517;49.020;12.066;2022-10-26T10:42:29;13.63;;;12.33;;
8964;SDS011;4517;49.020;12.066;2022-10-26T10:44:57;14.23;;;12.93;;
8964;SDS011;4517;49.020;12.066;2022-10-26T10:47:24;15.50;;;13.93;;
8964;SDS011;4517;49.020;12.066;2022-10-26T10:49:59;17.83;;;13.80;;
8964;SDS011;4517;49.020;12.066;2022-10-26T10:52:28;14.60;;;13.20;;
8964;SDS011;4517;49.020;12.066;2022-10-26T10:55:06;14.63;;;12.97;;
8964;SDS011;4517;49.020;12.066;2022-10-26T10:57:38;15.00;;;13.10;;
8964;SDS011;4517;49.020;12.066;2022-10-26T11:00:19;14.47;;;13.27;;
8964;SDS011;4517;49.020;12.066;2022-10-26T11:08:11;14.80;;;13.40;;
8964;SDS011;4517;49.020;12.066;2022-10-26T11:10:46;14.50;;;13.00;;
8964;SDS011;4517;49.020;12.066;2022-10-26T11:13:20;14.07;;;12.97;;
8964;SDS011;4517;49.020;12.066;2022-10-26T11:15:51;15.50;;;14.10;;
8964;SDS011;4517;49.020;12.066;2022-10-26T11:18:28;14.03;;;12.83;;
8964;SDS011;4517;49.020;12.066;2022-10-26T11:21:00;15.70;;;14.23;;
8964;SDS011;4517;49.020;12.066;2022-10-26T11:23:36;15.00;;;13.90;;
8964;SDS011;4517;49.020;12.066;2022-10-26T11:26:14;15.23;;;13.70;;
8964;SDS011;4517;49.020;12.066;2022-10-26T11:29:09;14.93;;;13.33;;
8964;SDS011;4517;49.020;12.066;2022-10-26T11:31:45;16.50;;;14.33;;
8964;SDS011;4517;49.020;12.066;2022-10-26T11:34:20;16.63;;;13.40;;
8964;SDS011;4517;49.020;12.066;2022-10-26T11:37:08;14.40;;;13.00;;
8964;SDS011;4517;49.020;12.066;2022-10-26T11:39:46;16.50;;;14.87;;
8964;SDS011;4517;49.020;12.066;2022-10-26T11:42:36;18.00;;;13.50;;
8964;SDS011;4517;49.020;12.066;2022-10-26T11:48:19;15.27;;;13.90;;
8964;SDS011;4517;49.020;12.066;2022-10-26T11:50:52;14.20;;;13.17;;
8964;SDS011;4517;49.020;12.066;2022-10-26T11:53:32;15.17;;;13.60;;
8964;SDS011;4517;49.020;12.066;2022-10-26T11:56:02;15.57;;;14.07;;
8964;SDS011;4517;49.020;12.066;2022-10-26T11:58:34;17.83;;;13.60;;
8964;SDS011;4517;49.020;12.066;2022-10-26T12:01:08;15.87;;;14.27;;
8964;SDS011;4517;49.020;12.066;2022-10-26T12:03:37;14.63;;;13.37;;
8964;SDS011;4517;49.020;12.066;2022-10-26T12:06:09;16.70;;;13.80;;
8964;SDS011;4517;49.020;12.066;2022-10-26T12:08:39;15.07;;;13.57;;
8964;SDS011;4517;49.020;12.066;2022-10-26T12:11:09;14.87;;;13.60;;
8964;SDS011;4517;49.020;12.066;2022-10-26T12:14:24;14.20;;;13.00;;
8964;SDS011;4517;49.020;12.066;2022-10-26T12:20:02;15.13;;;13.67;;
8964;SDS011;4517;49.020;12.066;2022-10-26T12:22:51;13.87;;;12.47;;
8964;SDS011;4517;49.020;12.066;2022-10-26T12:25:23;14.53;;;13.13;;
8964;SDS011;4517;49.020;12.066;2022-10-26T12:27:51;13.70;;;12.50;;
8964;SDS011;4517;49.020;12.066;2022-10-26T12:32:51;15.57;;;13.97;;
8964;SDS011;4517;49.020;12.066;2022-10-26T12:37:53;14.47;;;13.07;;
8964;SDS011;4517;49.020;12.066;2022-10-26T12:45:45;15.90;;;13.27;;
8964;SDS011;4517;49.020;12.066;2022-10-26T12:51:36;13.70;;;12.60;;
8964;SDS011;4517;49.020;12.066;2022-10-26T12:56:33;13.97;;;12.87;;
8964;SDS011;4517;49.020;12.066;2022-10-26T13:01:48;12.17;;;11.00;;
8964;SDS011;4517;49.020;12.066;2022-10-26T13:07:38;13.13;;;11.97;;
8964;SDS011;4517;49.020;12.066;2022-10-26T13:10:14;12.60;;;11.50;;
8964;SDS011;4517;49.020;12.066;2022-10-26T13:13:02;13.23;;;12.10;;
8964;SDS011;4517;49.020;12.066;2022-10-26T13:15:40;15.23;;;12.23;;
8964;SDS011;4517;49.020;12.066;2022-10-26T13:18:18;13.47;;;11.70;;
8964;SDS011;4517;49.020;12.066;2022-10-26T13:21:00;12.57;;;11.67;;
8964;SDS011;4517;49.020;12.066;2022-10-26T13:23:28;14.00;;;12.57;;
8964;SDS011;4517;49.020;12.066;2022-10-26T13:26:03;13.47;;;12.40;;
8964;SDS011;4517;49.020;12.066;2022-10-26T13:31:01;13.57;;;11.80;;
8964;SDS011;4517;49.020;12.066;2022-10-26T13:33:35;12.93;;;11.90;;
8964;SDS011;4517;49.020;12.066;2022-10-26T13:36:05;12.90;;;11.67;;
8964;SDS011;4517;49.020;12.066;2022-10-26T13:38:45;12.30;;;11.10;;
8964;SDS011;4517;49.020;12.066;2022-10-26T13:41:25;21.93;;;9.07;;
8964;SDS011;4517;49.020;12.066;2022-10-26T13:44:02;8.10;;;7.40;;
8964;SDS011;4517;49.020;12.066;2022-10-26T13:46:33;8.93;;;8.10;;
8964;SDS011;4517;49.020;12.066;2022-10-26T13:49:20;11.10;;;8.37;;
8964;SDS011;4517;49.020;12.066;2022-10-26T13:51:54;9.73;;;8.07;;
8964;SDS011;4517;49.020;12.066;2022-10-26T13:59:43;11.70;;;8.67;;
8964;SDS011;4517;49.020;12.066;2022-10-26T14:02:24;12.63;;;11.13;;
8964;SDS011;4517;49.020;12.066;2022-10-26T14:05:01;13.50;;;9.00;;
8964;SDS011;4517;49.020;12.066;2022-10-26T14:10:04;25.77;;;9.17;;
8964;SDS011;4517;49.020;12.066;2022-10-26T14:12:30;11.47;;;9.00;;
8964;SDS011;4517;49.020;12.066;2022-10-26T14:15:00;9.60;;;8.63;;
8964;SDS011;4517;49.020;12.066;2022-10-26T14:17:31;20.63;;;9.73;;
8964;SDS011;4517;49.020;12.066;2022-10-26T14:19:57;10.43;;;8.90;;
8964;SDS011;4517;49.020;12.066;2022-10-26T14:22:24;8.80;;;8.10;;
8964;SDS011;4517;49.020;12.066;2022-10-26T14:24:59;11.00;;;8.57;;
8964;SDS011;4517;49.020;12.066;2022-10-26T14:27:31;8.73;;;7.90;;
8964;SDS011;4517;49.020;12.066;2022-10-26T14:30:02;20.83;;;8.10;;
8964;SDS011;4517;49.020;12.066;2022-10-26T14:32:45;26.33;;;8.77;;
8964;SDS011;4517;49.020;12.066;2022-10-26T14:35:11;11.60;;;9.57;;
8964;SDS011;4517;49.020;12.066;2022-10-26T14:37:51;11.90;;;9.80;;
8964;SDS011;4517;49.020;12.066;2022-10-26T14:40:22;8.97;;;8.27;;
8964;SDS011;4517;49.020;12.066;2022-10-26T14:42:51;10.83;;;8.93;;
8964;SDS011;4517;49.020;12.066;2022-10-26T14:45:33;11.47;;;8.60;;
8964;SDS011;4517;49.020;12.066;2022-10-26T14:48:01;10.83;;;9.37;;
8964;SDS011;4517;49.020;12.066;2022-10-26T14:50:28;14.83;;;9.73;;
8964;SDS011;4517;49.020;12.066;2022-10-26T14:53:00;11.00;;;9.90;;
8964;SDS011;4517;49.020;12.066;2022-10-26T14:55:29;23.23;;;14.47;;
8964;SDS011;4517;49.020;12.066;2022-10-26T14:58:11;21.40;;;12.07;;
8964;SDS011;4517;49.020;12.066;2022-10-26T15:00:42;19.50;;;10.77;;
8964;SDS011;4517;49.020;12.066;2022-10-26T15:03:12;12.30;;;9.33;;
8964;SDS011;4517;49.020;12.066;2022-10-26T15:05:40;10.33;;;9.43;;
8964;SDS011;4517;49.020;12.066;2022-10-26T15:11:07;10.23;;;9.20;;
8964;SDS011;4517;49.020;12.066;2022-10-26T15:13:33;10.37;;;9.23;;
8964;SDS011;4517;49.020;12.066;2022-10-26T15:16:07;9.20;;;8.40;;
8964;SDS011;4517;49.020;12.066;2022-10-26T15:18:35;11.00;;;10.00;;
8964;SDS011;4517;49.020;12.066;2022-10-26T15:21:02;9.60;;;8.53;;
8964;SDS011;4517;49.020;12.066;2022-10-26T15:23:30;11.70;;;9.27;;
8964;SDS011;4517;49.020;12.066;2022-10-26T15:25:57;13.87;;;8.70;;
8964;SDS011;4517;49.020;12.066;2022-10-26T15:28:58;11.57;;;9.47;;
8964;SDS011;4517;49.020;12.066;2022-10-26T15:36:17;10.43;;;9.47;;
8964;SDS011;4517;49.020;12.066;2022-10-26T15:38:44;15.03;;;12.37;;
8964;SDS011;4517;49.020;12.066;2022-10-26T15:43:37;15.63;;;9.70;;
8964;SDS011;4517;49.020;12.066;2022-10-26T15:46:03;9.90;;;8.90;;
8964;SDS011;4517;49.020;12.066;2022-10-26T15:48:30;12.87;;;9.53;;
8964;SDS011;4517;49.020;12.066;2022-10-26T15:50:58;15.10;;;9.93;;
8964;SDS011;4517;49.020;12.066;2022-10-26T15:53:24;12.00;;;10.70;;
8964;SDS011;4517;49.020;12.066;2022-10-26T15:55:55;14.67;;;10.13;;
8964;SDS011;4517;49.020;12.066;2022-10-26T15:58:23;11.80;;;9.47;;
8964;SDS011;4517;49.020;12.066;2022-10-26T16:00:49;12.27;;;10.40;;
8964;SDS011;4517;49.020;12.066;2022-10-26T16:03:15;15.07;;;10.00;;
8964;SDS011;4517;49.020;12.066;2022-10-26T16:05:47;13.37;;;10.50;;
8964;SDS011;4517;49.020;12.066;2022-10-26T16:08:15;12.43;;;10.57;;
8964;SDS011;4517;49.020;12.066;2022-10-26T16:10:42;10.67;;;9.60;;
8964;SDS011;4517;49.020;12.066;2022-10-26T16:13:11;11.60;;;10.03;;
8964;SDS011;4517;49.020;12.066;2022-10-26T16:15:37;16.13;;;10.07;;
8964;SDS011;4517;49.020;12.066;2022-10-26T16:18:03;16.13;;;10.27;;
8964;SDS011;4517;49.020;12.066;2022-10-26T16:20:28;13.07;;;10.30;;
8964;SDS011;4517;49.020;12.066;2022-10-26T16:22:54;10.10;;;9.10;;
8964;SDS011;4517;49.020;12.066;2022-10-26T16:25:22;12.53;;;10.63;;
8964;SDS011;4517;49.020;12.066;2022-10-26T16:27:49;14.97;;;10.57;;
8964;SDS011;4517;49.020;12.066;2022-10-26T16:30:15;13.50;;;10.20;;
8964;SDS011;4517;49.020;12.066;2022-10-26T16:32:42;13.53;;;10.13;;